createdAt,value
2019-01-21T00:00:09.296Z,1015.07
2019-01-21T00:01:09.289Z,1015.09
2019-01-21T00:02:09.275Z,1015.08
2019-01-21T00:03:14.308Z,1015.10
2019-01-21T00:04:09.276Z,1015.14
2019-01-21T00:05:09.243Z,1015.09
2019-01-21T00:06:09.232Z,1015.09
2019-01-21T00:07:09.225Z,1015.09
2019-01-21T00:08:09.211Z,1015.11
2019-01-21T00:09:09.219Z,1015.08
2019-01-21T00:10:09.190Z,1015.10
2019-01-21T00:11:09.179Z,1015.10
2019-01-21T00:12:09.173Z,1015.12
2019-01-21T00:13:09.159Z,1015.12
2019-01-21T00:14:09.167Z,1015.14
2019-01-21T00:15:09.141Z,1015.17
2019-01-21T00:16:09.126Z,1015.15
2019-01-21T00:17:09.122Z,1015.14
2019-01-21T00:18:09.104Z,1015.14
2019-01-21T00:19:09.115Z,1015.10
2019-01-21T00:20:09.083Z,1015.06
2019-01-21T00:21:09.072Z,1015.09
2019-01-21T00:22:09.060Z,1015.11
2019-01-21T00:23:09.053Z,1015.18
2019-01-21T00:24:09.059Z,1015.14
2019-01-21T00:25:09.031Z,1015.12
2019-01-21T00:26:09.021Z,1015.16
2019-01-21T00:27:09.008Z,1015.16
2019-01-21T00:28:09.000Z,1015.15
2019-01-21T00:29:09.007Z,1015.16
2019-01-21T00:30:08.999Z,1015.15
2019-01-21T00:31:08.972Z,1015.08
2019-01-21T00:32:08.955Z,1015.16
2019-01-21T00:33:08.943Z,1015.16
2019-01-21T00:34:08.933Z,1015.12
2019-01-21T00:35:08.942Z,1015.15
2019-01-21T00:36:08.911Z,1015.20
2019-01-21T00:37:08.900Z,1015.20
2019-01-21T00:38:08.891Z,1015.20
2019-01-21T00:39:08.894Z,1015.20
2019-01-21T00:40:08.892Z,1015.16
2019-01-21T00:41:08.859Z,1015.16
2019-01-21T00:42:08.850Z,1015.12
2019-01-21T00:43:08.843Z,1015.11
2019-01-21T00:44:08.828Z,1015.18
2019-01-21T00:45:08.834Z,1015.17
2019-01-21T00:46:08.806Z,1015.20
2019-01-21T00:47:08.794Z,1015.17
2019-01-21T00:48:08.788Z,1015.22
2019-01-21T00:49:08.777Z,1015.17
2019-01-21T00:50:08.782Z,1015.15
2019-01-21T00:51:08.757Z,1015.20
2019-01-21T00:52:08.744Z,1015.21
2019-01-21T00:53:08.734Z,1015.22
2019-01-21T00:54:08.720Z,1015.25
2019-01-21T00:55:08.729Z,1015.24
2019-01-21T00:56:08.698Z,1015.20
2019-01-21T00:57:08.691Z,1015.23
2019-01-21T00:58:08.678Z,1015.23
2019-01-21T00:59:08.666Z,1015.28
2019-01-21T01:00:08.676Z,1015.25
2019-01-21T01:01:08.645Z,1015.23
2019-01-21T01:02:08.634Z,1015.23
2019-01-21T01:03:08.627Z,1015.25
2019-01-21T01:04:08.617Z,1015.20
2019-01-21T01:05:08.624Z,1015.17
2019-01-21T01:06:08.592Z,1015.22
2019-01-21T01:07:08.582Z,1015.25
2019-01-21T01:08:08.570Z,1015.24
2019-01-21T01:09:08.562Z,1015.21
2019-01-21T01:10:08.568Z,1015.24
2019-01-21T01:11:08.540Z,1015.25
2019-01-21T01:12:08.531Z,1015.25
2019-01-21T01:13:08.517Z,1015.24
2019-01-21T01:14:08.506Z,1015.24
2019-01-21T01:15:08.526Z,1015.27
2019-01-21T01:16:08.529Z,1015.26
2019-01-21T01:17:08.478Z,1015.31
2019-01-21T01:18:08.469Z,1015.31
2019-01-21T01:19:08.453Z,1015.34
2019-01-21T01:20:08.443Z,1015.39
2019-01-21T01:21:08.452Z,1015.37
2019-01-21T01:22:08.420Z,1015.40
2019-01-21T01:23:08.412Z,1015.35
2019-01-21T01:24:08.400Z,1015.36
2019-01-21T01:25:08.399Z,1015.33
2019-01-21T01:26:08.398Z,1015.33
2019-01-21T01:27:08.368Z,1015.35
2019-01-21T01:28:08.357Z,1015.36
2019-01-21T01:29:08.345Z,1015.37
2019-01-21T01:30:08.336Z,1015.37
2019-01-21T01:31:08.344Z,1015.42
2019-01-21T01:32:08.314Z,1015.43
2019-01-21T01:33:08.303Z,1015.38
2019-01-21T01:34:08.293Z,1015.36
2019-01-21T01:35:08.283Z,1015.39
2019-01-21T01:36:08.304Z,1015.37
2019-01-21T01:37:08.262Z,1015.38
2019-01-21T01:38:08.250Z,1015.40
2019-01-21T01:39:08.239Z,1015.37
2019-01-21T01:40:08.232Z,1015.36
2019-01-21T01:41:08.225Z,1015.34
2019-01-21T01:42:08.229Z,1015.37
2019-01-21T01:43:08.203Z,1015.40
2019-01-21T01:44:08.186Z,1015.39
2019-01-21T01:45:08.179Z,1015.36
2019-01-21T01:46:08.166Z,1015.42
2019-01-21T01:47:08.174Z,1015.40
2019-01-21T01:48:08.146Z,1015.43
2019-01-21T01:49:08.141Z,1015.45
2019-01-21T01:50:08.121Z,1015.45
2019-01-21T01:51:08.115Z,1015.49
2019-01-21T01:52:08.121Z,1015.52
2019-01-21T01:53:08.090Z,1015.52
2019-01-21T01:54:08.080Z,1015.55
2019-01-21T01:55:08.068Z,1015.56
2019-01-21T01:56:08.064Z,1015.53
2019-01-21T01:57:08.074Z,1015.55
2019-01-21T01:58:08.039Z,1015.57
2019-01-21T01:59:08.026Z,1015.60
2019-01-21T02:00:08.016Z,1015.58
2019-01-21T02:01:08.005Z,1015.56
2019-01-21T02:02:08.030Z,1015.58
2019-01-21T02:03:07.984Z,1015.53
2019-01-21T02:04:07.989Z,1015.51
2019-01-21T02:05:07.976Z,1015.50
2019-01-21T02:06:07.954Z,1015.53
2019-01-21T02:07:07.946Z,1015.50
2019-01-21T02:08:07.952Z,1015.52
2019-01-21T02:09:07.928Z,1015.54
2019-01-21T02:10:07.908Z,1015.55
2019-01-21T02:11:07.899Z,1015.57
2019-01-21T02:12:07.889Z,1015.54
2019-01-21T02:13:07.900Z,1015.53
2019-01-21T02:14:07.870Z,1015.56
2019-01-21T02:15:07.861Z,1015.58
2019-01-21T02:16:07.850Z,1015.59
2019-01-21T02:17:07.834Z,1015.59
2019-01-21T02:18:07.842Z,1015.54
2019-01-21T02:19:07.813Z,1015.58
2019-01-21T02:20:07.808Z,1015.58
2019-01-21T02:21:07.804Z,1015.54
2019-01-21T02:22:07.783Z,1015.55
2019-01-21T02:23:07.790Z,1015.53
2019-01-21T02:24:07.759Z,1015.51
2019-01-21T02:25:07.749Z,1015.56
2019-01-21T02:26:07.740Z,1015.52
2019-01-21T02:27:07.731Z,1015.51
2019-01-21T02:28:07.739Z,1015.55
2019-01-21T02:29:07.705Z,1015.55
2019-01-21T02:30:07.709Z,1015.48
2019-01-21T02:31:07.687Z,1015.51
2019-01-21T02:32:07.679Z,1015.48
2019-01-21T02:33:07.697Z,1015.53
2019-01-21T02:34:07.656Z,1015.53
2019-01-21T02:35:07.645Z,1015.53
2019-01-21T02:36:07.633Z,1015.48
2019-01-21T02:37:07.622Z,1015.51
2019-01-21T02:38:07.630Z,1015.57
2019-01-21T02:39:07.613Z,1015.55
2019-01-21T02:40:07.588Z,1015.52
2019-01-21T02:41:07.591Z,1015.55
2019-01-21T02:42:07.568Z,1015.55
2019-01-21T02:43:07.578Z,1015.54
2019-01-21T02:44:07.548Z,1015.48
2019-01-21T02:45:07.537Z,1015.53
2019-01-21T02:46:07.525Z,1015.51
2019-01-21T02:47:07.516Z,1015.53
2019-01-21T02:48:07.525Z,1015.56
2019-01-21T02:49:07.493Z,1015.51
2019-01-21T02:50:07.484Z,1015.53
2019-01-21T02:51:07.476Z,1015.55
2019-01-21T02:52:07.461Z,1015.59
2019-01-21T02:53:07.500Z,1015.55
2019-01-21T02:54:07.439Z,1015.54
2019-01-21T02:55:07.429Z,1015.57
2019-01-21T02:56:07.419Z,1015.57
2019-01-21T02:57:07.408Z,1015.54
2019-01-21T02:58:07.397Z,1015.54
2019-01-21T02:59:07.413Z,1015.54
2019-01-21T03:00:07.382Z,1015.54
2019-01-21T03:01:07.369Z,1015.59
2019-01-21T03:02:07.357Z,1015.56
2019-01-21T03:03:07.353Z,1015.52
2019-01-21T03:04:07.358Z,1015.59
2019-01-21T03:05:07.323Z,1015.55
2019-01-21T03:06:07.313Z,1015.55
2019-01-21T03:07:07.304Z,1015.52
2019-01-21T03:08:07.291Z,1015.54
2019-01-21T03:09:07.300Z,1015.61
2019-01-21T03:10:07.270Z,1015.56
2019-01-21T03:11:07.268Z,1015.55
2019-01-21T03:12:07.257Z,1015.64
2019-01-21T03:13:07.239Z,1015.64
2019-01-21T03:14:07.252Z,1015.62
2019-01-21T03:15:07.221Z,1015.64
2019-01-21T03:16:07.210Z,1015.62
2019-01-21T03:17:07.195Z,1015.64
2019-01-21T03:18:08.090Z,1015.63
2019-01-21T03:19:07.211Z,1015.65
2019-01-21T03:20:07.163Z,1015.66
2019-01-21T03:21:07.157Z,1015.67
2019-01-21T03:22:07.148Z,1015.67
2019-01-21T03:23:07.133Z,1015.69
2019-01-21T03:24:07.166Z,1015.72
2019-01-21T03:25:07.145Z,1015.72
2019-01-21T03:26:07.107Z,1015.67
2019-01-21T03:27:07.092Z,1015.65
2019-01-21T03:28:07.080Z,1015.74
2019-01-21T03:29:07.075Z,1015.64
2019-01-21T03:30:07.079Z,1015.65
2019-01-21T03:31:07.048Z,1015.61
2019-01-21T03:32:07.037Z,1015.59
2019-01-21T03:33:07.035Z,1015.65
2019-01-21T03:34:07.019Z,1015.69
2019-01-21T03:35:07.039Z,1015.74
2019-01-21T03:36:06.994Z,1015.70
2019-01-21T03:37:06.982Z,1015.67
2019-01-21T03:38:06.973Z,1015.73
2019-01-21T03:39:06.962Z,1015.71
2019-01-21T03:40:06.952Z,1015.71
2019-01-21T03:41:06.961Z,1015.71
2019-01-21T03:42:06.933Z,1015.74
2019-01-21T03:43:06.932Z,1015.72
2019-01-21T03:44:06.909Z,1015.78
2019-01-21T03:45:06.898Z,1015.78
2019-01-21T03:46:06.909Z,1015.70
2019-01-21T03:47:06.879Z,1015.73
2019-01-21T03:48:06.873Z,1015.73
2019-01-21T03:49:06.857Z,1015.71
2019-01-21T03:50:06.847Z,1015.70
2019-01-21T03:51:06.854Z,1015.74
2019-01-21T03:52:06.826Z,1015.72
2019-01-21T03:53:06.812Z,1015.73
2019-01-21T03:54:06.810Z,1015.74
2019-01-21T03:55:06.794Z,1015.77
2019-01-21T03:56:06.802Z,1015.79
2019-01-21T03:57:06.769Z,1015.79
2019-01-21T03:58:06.758Z,1015.83
2019-01-21T03:59:06.749Z,1015.83
2019-01-21T04:00:06.739Z,1015.82
2019-01-21T04:01:06.748Z,1015.84
2019-01-21T04:02:06.715Z,1015.83
2019-01-21T04:03:06.705Z,1015.80
2019-01-21T04:04:06.695Z,1015.83
2019-01-21T04:05:06.685Z,1015.78
2019-01-21T04:06:06.721Z,1015.81
2019-01-21T04:07:06.673Z,1015.80
2019-01-21T04:08:06.653Z,1015.80
2019-01-21T04:09:06.641Z,1015.80
2019-01-21T04:10:06.634Z,1015.78
2019-01-21T04:11:06.626Z,1015.77
2019-01-21T04:12:06.634Z,1015.80
2019-01-21T04:13:06.601Z,1015.84
2019-01-21T04:14:06.589Z,1015.79
2019-01-21T04:15:06.580Z,1015.85
2019-01-21T04:16:06.572Z,1015.80
2019-01-21T04:17:06.577Z,1015.81
2019-01-21T04:18:06.547Z,1015.79
2019-01-21T04:19:06.536Z,1015.80
2019-01-21T04:20:06.531Z,1015.80
2019-01-21T04:21:06.520Z,1015.81
2019-01-21T04:22:06.527Z,1015.80
2019-01-21T04:23:06.493Z,1015.86
2019-01-21T04:24:06.483Z,1015.80
2019-01-21T04:25:06.474Z,1015.78
2019-01-21T04:26:06.469Z,1015.83
2019-01-21T04:27:06.483Z,1015.73
2019-01-21T04:28:06.444Z,1015.84
2019-01-21T04:29:06.433Z,1015.74
2019-01-21T04:30:06.421Z,1015.72
2019-01-21T04:31:06.407Z,1015.72
2019-01-21T04:32:06.417Z,1015.75
2019-01-21T04:33:06.392Z,1015.72
2019-01-21T04:34:06.378Z,1015.68
2019-01-21T04:35:06.366Z,1015.71
2019-01-21T04:36:06.358Z,1015.76
2019-01-21T04:37:06.372Z,1015.69
2019-01-21T04:38:06.337Z,1015.74
2019-01-21T04:39:06.327Z,1015.74
2019-01-21T04:40:06.312Z,1015.75
2019-01-21T04:41:06.304Z,1015.72
2019-01-21T04:42:06.293Z,1015.76
2019-01-21T04:43:06.300Z,1015.74
2019-01-21T04:44:06.271Z,1015.77
2019-01-21T04:45:06.260Z,1015.74
2019-01-21T04:46:06.251Z,1015.71
2019-01-21T04:47:06.241Z,1015.73
2019-01-21T04:48:06.257Z,1015.73
2019-01-21T04:49:06.219Z,1015.70
2019-01-21T04:50:06.228Z,1015.75
2019-01-21T04:51:06.196Z,1015.79
2019-01-21T04:52:06.184Z,1015.78
2019-01-21T04:53:06.194Z,1015.78
2019-01-21T04:54:06.165Z,1015.77
2019-01-21T04:55:06.156Z,1015.79
2019-01-21T04:56:06.144Z,1015.70
2019-01-21T04:57:06.137Z,1015.75
2019-01-21T04:58:06.144Z,1015.71
2019-01-21T04:59:06.118Z,1015.74
2019-01-21T05:00:06.104Z,1015.74
2019-01-21T05:01:06.091Z,1015.76
2019-01-21T05:02:06.080Z,1015.72
2019-01-21T05:03:06.104Z,1015.69
2019-01-21T05:04:06.061Z,1015.65
2019-01-21T05:05:14.244Z,1015.61
2019-01-21T05:06:06.062Z,1015.65
2019-01-21T05:07:06.045Z,1015.64
2019-01-21T05:08:06.018Z,1015.65
2019-01-21T05:09:06.059Z,1015.66
2019-01-21T05:10:05.995Z,1015.63
2019-01-21T05:11:05.983Z,1015.63
2019-01-21T05:12:05.976Z,1015.62
2019-01-21T05:13:05.982Z,1015.65
2019-01-21T05:14:05.971Z,1015.61
2019-01-21T05:15:05.942Z,1015.64
2019-01-21T05:16:06.024Z,1015.63
2019-01-21T05:17:05.954Z,1015.64
2019-01-21T05:18:05.914Z,1015.64
2019-01-21T05:19:05.933Z,1015.66
2019-01-21T05:20:05.892Z,1015.67
2019-01-21T05:21:05.879Z,1015.67
2019-01-21T05:22:05.868Z,1015.66
2019-01-21T05:23:05.856Z,1015.67
2019-01-21T05:24:05.864Z,1015.70
2019-01-21T05:25:05.837Z,1015.68
2019-01-21T05:26:05.838Z,1015.69
2019-01-21T05:27:05.818Z,1015.73
2019-01-21T05:28:05.803Z,1015.73
2019-01-21T05:29:05.811Z,1015.75
2019-01-21T05:30:05.784Z,1015.77
2019-01-21T05:31:05.772Z,1015.69
2019-01-21T05:32:05.763Z,1015.71
2019-01-21T05:33:05.750Z,1015.73
2019-01-21T05:34:05.784Z,1015.74
2019-01-21T05:35:15.316Z,1015.71
2019-01-21T05:36:05.719Z,1015.73
2019-01-21T05:37:05.793Z,1015.77
2019-01-21T05:38:05.698Z,1015.73
2019-01-21T05:39:05.711Z,1015.76
2019-01-21T05:40:05.677Z,1015.74
2019-01-21T05:41:05.668Z,1015.75
2019-01-21T05:42:05.658Z,1015.71
2019-01-21T05:43:05.646Z,1015.72
2019-01-21T05:44:05.661Z,1015.72
2019-01-21T05:45:05.622Z,1015.72
2019-01-21T05:46:05.616Z,1015.69
2019-01-21T05:47:05.603Z,1015.67
2019-01-21T05:48:05.590Z,1015.65
2019-01-21T05:49:05.585Z,1015.66
2019-01-21T05:50:05.591Z,1015.69
2019-01-21T05:51:05.557Z,1015.73
2019-01-21T05:52:05.551Z,1015.79
2019-01-21T05:53:05.541Z,1015.77
2019-01-21T05:54:05.526Z,1015.78
2019-01-21T05:55:05.542Z,1015.77
2019-01-21T05:56:05.508Z,1015.75
2019-01-21T05:57:05.495Z,1015.75
2019-01-21T05:58:05.484Z,1015.78
2019-01-21T05:59:05.474Z,1015.76
2019-01-21T06:00:05.483Z,1015.78
2019-01-21T06:01:05.452Z,1015.78
2019-01-21T06:02:05.443Z,1015.84
2019-01-21T06:03:05.430Z,1015.80
2019-01-21T06:04:05.421Z,1015.83
2019-01-21T06:05:05.434Z,1015.83
2019-01-21T06:06:05.402Z,1015.85
2019-01-21T06:07:05.442Z,1015.82
2019-01-21T06:08:05.379Z,1015.86
2019-01-21T06:09:05.367Z,1015.84
2019-01-21T06:10:05.376Z,1015.89
2019-01-21T06:11:05.347Z,1015.89
2019-01-21T06:12:05.338Z,1015.90
2019-01-21T06:13:05.327Z,1015.95
2019-01-21T06:14:05.317Z,1015.96
2019-01-21T06:15:05.335Z,1015.99
2019-01-21T06:16:05.297Z,1015.97
2019-01-21T06:17:05.283Z,1015.99
2019-01-21T06:18:05.271Z,1015.97
2019-01-21T06:19:05.293Z,1015.99
2019-01-21T06:20:05.251Z,1016.00
2019-01-21T06:21:05.263Z,1015.99
2019-01-21T06:22:05.230Z,1015.98
2019-01-21T06:23:05.221Z,1016.02
2019-01-21T06:24:05.208Z,1016.00
2019-01-21T06:25:05.199Z,1016.00
2019-01-21T06:26:05.208Z,1015.99
2019-01-21T06:27:05.176Z,1015.99
2019-01-21T06:28:05.175Z,1015.97
2019-01-21T06:29:05.159Z,1015.96
2019-01-21T06:30:05.144Z,1015.93
2019-01-21T06:31:05.156Z,1015.99
2019-01-21T06:32:05.127Z,1016.00
2019-01-21T06:33:05.112Z,1016.00
2019-01-21T06:34:05.114Z,1015.98
2019-01-21T06:35:05.099Z,1015.97
2019-01-21T06:36:05.105Z,1015.98
2019-01-21T06:37:05.079Z,1015.95
2019-01-21T06:38:05.060Z,1015.94
2019-01-21T06:39:05.050Z,1015.95
2019-01-21T06:40:05.038Z,1015.95
2019-01-21T06:41:05.047Z,1015.98
2019-01-21T06:42:05.018Z,1016.02
2019-01-21T06:43:05.008Z,1015.98
2019-01-21T06:44:05.000Z,1016.01
2019-01-21T06:45:04.987Z,1016.00
2019-01-21T06:46:04.996Z,1015.99
2019-01-21T06:47:04.965Z,1016.02
2019-01-21T06:48:04.960Z,1016.02
2019-01-21T06:49:05.111Z,1016.04
2019-01-21T06:50:04.937Z,1016.01
2019-01-21T06:51:04.959Z,1016.05
2019-01-21T06:52:04.914Z,1016.04
2019-01-21T06:53:04.904Z,1016.05
2019-01-21T06:54:04.890Z,1016.07
2019-01-21T06:55:04.879Z,1016.09
2019-01-21T06:56:04.869Z,1016.02
2019-01-21T06:57:04.881Z,1016.12
2019-01-21T06:58:04.850Z,1016.17
2019-01-21T06:59:04.841Z,1016.16
2019-01-21T07:00:04.826Z,1016.14
2019-01-21T07:01:04.822Z,1016.17
2019-01-21T07:02:04.831Z,1016.22
2019-01-21T07:03:04.802Z,1016.17
2019-01-21T07:04:04.784Z,1016.14
2019-01-21T07:05:04.774Z,1016.13
2019-01-21T07:06:04.769Z,1016.16
2019-01-21T07:07:04.781Z,1016.12
2019-01-21T07:08:04.745Z,1016.15
2019-01-21T07:09:04.733Z,1016.19
2019-01-21T07:10:04.725Z,1016.17
2019-01-21T07:11:04.710Z,1016.24
2019-01-21T07:12:04.722Z,1016.20
2019-01-21T07:13:04.696Z,1016.27
2019-01-21T07:14:04.682Z,1016.28
2019-01-21T07:15:04.670Z,1016.24
2019-01-21T07:16:04.699Z,1016.24
2019-01-21T07:17:04.670Z,1016.27
2019-01-21T07:18:04.636Z,1016.28
2019-01-21T07:19:10.883Z,1016.31
2019-01-21T07:20:04.618Z,1016.34
2019-01-21T07:21:04.606Z,1016.33
2019-01-21T07:22:04.613Z,1016.38
2019-01-21T07:23:04.585Z,1016.31
2019-01-21T07:24:04.575Z,1016.35
2019-01-21T07:25:04.566Z,1016.39
2019-01-21T07:26:04.553Z,1016.35
2019-01-21T07:27:04.834Z,1016.35
2019-01-21T07:28:04.534Z,1016.36
2019-01-21T07:29:04.520Z,1016.28
2019-01-21T07:30:04.517Z,1016.40
2019-01-21T07:31:04.503Z,1016.40
2019-01-21T07:32:04.487Z,1016.39
2019-01-21T07:33:04.503Z,1016.37
2019-01-21T07:34:04.471Z,1016.40
2019-01-21T07:35:04.457Z,1016.33
2019-01-21T07:36:04.448Z,1016.32
2019-01-21T07:37:04.435Z,1016.33
2019-01-21T07:38:04.450Z,1016.30
2019-01-21T07:39:04.415Z,1016.29
2019-01-21T07:40:04.403Z,1016.29
2019-01-21T07:41:04.393Z,1016.35
2019-01-21T07:42:04.382Z,1016.32
2019-01-21T07:43:04.392Z,1016.37
2019-01-21T07:44:04.361Z,1016.37
2019-01-21T07:45:04.350Z,1016.37
2019-01-21T07:46:04.339Z,1016.37
2019-01-21T07:47:04.329Z,1016.34
2019-01-21T07:48:05.207Z,1016.38
2019-01-21T07:49:04.316Z,1016.32
2019-01-21T07:50:04.297Z,1016.26
2019-01-21T07:51:04.288Z,1016.36
2019-01-21T07:52:04.278Z,1016.29
2019-01-21T07:53:04.285Z,1016.34
2019-01-21T07:54:04.256Z,1016.36
2019-01-21T07:55:04.245Z,1016.34
2019-01-21T07:56:04.238Z,1016.33
2019-01-21T07:57:04.224Z,1016.34
2019-01-21T07:58:04.236Z,1016.30
2019-01-21T07:59:04.207Z,1016.33
2019-01-21T08:00:04.197Z,1016.30
2019-01-21T08:01:04.181Z,1016.33
2019-01-21T08:02:04.171Z,1016.31
2019-01-21T08:03:04.184Z,1016.33
2019-01-21T08:04:04.150Z,1016.33
2019-01-21T08:05:04.140Z,1016.34
2019-01-21T08:06:04.131Z,1016.36
2019-01-21T08:07:04.117Z,1016.30
2019-01-21T08:08:04.145Z,1016.33
2019-01-21T08:09:04.102Z,1016.28
2019-01-21T08:10:04.086Z,1016.25
2019-01-21T08:11:04.078Z,1016.26
2019-01-21T08:12:04.067Z,1016.30
2019-01-21T08:13:04.056Z,1016.28
2019-01-21T08:14:04.064Z,1016.30
2019-01-21T08:15:04.032Z,1016.32
2019-01-21T08:16:04.023Z,1016.33
2019-01-21T08:17:04.014Z,1016.36
2019-01-21T08:18:04.009Z,1016.39
2019-01-21T08:19:04.012Z,1016.42
2019-01-21T08:20:03.980Z,1016.43
2019-01-21T08:21:03.973Z,1016.38
2019-01-21T08:22:03.958Z,1016.42
2019-01-21T08:23:03.950Z,1016.47
2019-01-21T08:24:03.958Z,1016.45
2019-01-21T08:25:03.931Z,1016.43
2019-01-21T08:26:03.917Z,1016.44
2019-01-21T08:27:03.905Z,1016.42
2019-01-21T08:28:03.894Z,1016.42
2019-01-21T08:29:03.905Z,1016.40
2019-01-21T08:30:03.873Z,1016.45
2019-01-21T08:31:03.866Z,1016.46
2019-01-21T08:32:03.851Z,1016.42
2019-01-21T08:33:03.840Z,1016.44
2019-01-21T08:34:03.856Z,1016.47
2019-01-21T08:35:03.832Z,1016.44
2019-01-21T08:36:03.813Z,1016.49
2019-01-21T08:37:03.796Z,1016.50
2019-01-21T08:38:03.791Z,1016.49
2019-01-21T08:39:03.795Z,1016.52
2019-01-21T08:40:03.764Z,1016.51
2019-01-21T08:41:03.753Z,1016.47
2019-01-21T08:42:03.742Z,1016.50
2019-01-21T08:43:03.733Z,1016.51
2019-01-21T08:44:03.745Z,1016.50
2019-01-21T08:45:03.710Z,1016.51
2019-01-21T08:46:03.700Z,1016.52
2019-01-21T08:47:03.692Z,1016.48
2019-01-21T08:48:03.681Z,1016.46
2019-01-21T08:49:03.790Z,1016.39
2019-01-21T08:50:03.659Z,1016.38
2019-01-21T08:51:03.646Z,1016.40
2019-01-21T08:52:03.642Z,1016.36
2019-01-21T08:53:03.628Z,1016.41
2019-01-21T08:54:03.616Z,1016.45
2019-01-21T08:55:03.626Z,1016.44
2019-01-21T08:56:03.595Z,1016.41
2019-01-21T08:57:04.546Z,1016.45
2019-01-21T08:58:04.596Z,1016.49
2019-01-21T08:59:03.567Z,1016.53
2019-01-21T09:00:03.579Z,1016.52
2019-01-21T09:01:03.540Z,1016.58
2019-01-21T09:02:03.527Z,1016.54
2019-01-21T09:03:03.522Z,1016.49
2019-01-21T09:04:03.506Z,1016.52
2019-01-21T09:05:03.521Z,1016.50
2019-01-21T09:06:03.485Z,1016.49
2019-01-21T09:07:03.478Z,1016.53
2019-01-21T09:08:03.465Z,1016.56
2019-01-21T09:09:03.451Z,1016.53
2019-01-21T09:10:03.464Z,1016.55
2019-01-21T09:11:03.443Z,1016.57
2019-01-21T09:12:03.422Z,1016.54
2019-01-21T09:13:03.413Z,1016.55
2019-01-21T09:14:03.402Z,1016.56
2019-01-21T09:15:03.408Z,1016.53
2019-01-21T09:16:03.378Z,1016.52
2019-01-21T09:17:03.366Z,1016.49
2019-01-21T09:18:03.357Z,1016.51
2019-01-21T09:19:03.346Z,1016.51
2019-01-21T09:20:03.362Z,1016.55
2019-01-21T09:21:03.324Z,1016.60
2019-01-21T09:22:03.316Z,1016.58
2019-01-21T09:23:03.306Z,1016.61
2019-01-21T09:24:03.291Z,1016.60
2019-01-21T09:25:03.423Z,1016.57
2019-01-21T09:26:03.272Z,1016.63
2019-01-21T09:27:03.259Z,1016.61
2019-01-21T09:28:03.247Z,1016.64
2019-01-21T09:29:03.237Z,1016.54
2019-01-21T09:30:03.226Z,1016.59
2019-01-21T09:31:03.234Z,1016.55
2019-01-21T09:32:03.205Z,1016.59
2019-01-21T09:33:03.194Z,1016.59
2019-01-21T09:34:03.183Z,1016.61
2019-01-21T09:35:03.174Z,1016.63
2019-01-21T09:36:03.182Z,1016.60
2019-01-21T09:37:03.149Z,1016.61
2019-01-21T09:38:03.138Z,1016.58
2019-01-21T09:39:03.131Z,1016.68
2019-01-21T09:40:03.119Z,1016.68
2019-01-21T09:41:03.125Z,1016.76
2019-01-21T09:42:03.094Z,1016.72
2019-01-21T09:43:03.082Z,1016.76
2019-01-21T09:44:03.071Z,1016.82
2019-01-21T09:45:03.062Z,1016.80
2019-01-21T09:46:03.073Z,1016.85
2019-01-21T09:47:03.039Z,1016.84
2019-01-21T09:48:03.029Z,1016.79
2019-01-21T09:49:03.023Z,1016.80
2019-01-21T09:50:03.005Z,1016.90
2019-01-21T09:51:03.013Z,1016.85
2019-01-21T09:52:02.982Z,1016.88
2019-01-21T09:53:02.973Z,1016.79
2019-01-21T09:54:02.962Z,1016.79
2019-01-21T09:55:02.951Z,1016.78
2019-01-21T09:56:02.973Z,1016.83
2019-01-21T09:57:02.933Z,1016.85
2019-01-21T09:58:02.918Z,1016.79
2019-01-21T09:59:02.906Z,1016.80
2019-01-21T10:00:02.896Z,1016.75
2019-01-21T10:01:02.885Z,1016.74
2019-01-21T10:02:02.894Z,1016.70
2019-01-21T10:03:02.862Z,1016.65
2019-01-21T10:04:02.851Z,1016.59
2019-01-21T10:05:02.842Z,1016.61
2019-01-21T10:06:02.832Z,1016.60
2019-01-21T10:07:02.838Z,1016.61
2019-01-21T10:08:02.813Z,1016.59
2019-01-21T10:09:02.795Z,1016.58
2019-01-21T10:10:02.793Z,1016.58
2019-01-21T10:11:03.465Z,1016.55
2019-01-21T10:12:02.786Z,1016.53
2019-01-21T10:13:02.760Z,1016.52
2019-01-21T10:14:02.745Z,1016.49
2019-01-21T10:15:02.731Z,1016.45
2019-01-21T10:16:02.720Z,1016.50
2019-01-21T10:17:02.735Z,1016.47
2019-01-21T10:18:02.700Z,1016.42
2019-01-21T10:19:02.691Z,1016.35
2019-01-21T10:20:02.686Z,1016.37
2019-01-21T10:21:02.671Z,1016.38
2019-01-21T10:22:02.680Z,1016.36
2019-01-21T10:23:02.647Z,1016.37
2019-01-21T10:24:02.632Z,1016.41
2019-01-21T10:25:02.620Z,1016.38
2019-01-21T10:26:02.612Z,1016.31
2019-01-21T10:27:02.618Z,1016.33
2019-01-21T10:28:02.589Z,1016.30
2019-01-21T10:29:02.580Z,1016.26
2019-01-21T10:30:02.565Z,1016.29
2019-01-21T10:31:02.557Z,1016.24
2019-01-21T10:32:02.580Z,1016.30
2019-01-21T10:33:02.534Z,1016.30
2019-01-21T10:34:02.521Z,1016.24
2019-01-21T10:35:02.510Z,1016.20
2019-01-21T10:36:02.498Z,1016.21
2019-01-21T10:37:02.487Z,1016.18
2019-01-21T10:38:02.497Z,1016.18
2019-01-21T10:39:02.468Z,1016.11
2019-01-21T10:40:02.455Z,1016.09
2019-01-21T10:41:02.448Z,1016.09
2019-01-21T10:42:02.432Z,1016.07
2019-01-21T10:43:02.444Z,1016.09
2019-01-21T10:44:02.410Z,1016.08
2019-01-21T10:45:02.404Z,1016.08
2019-01-21T10:46:02.387Z,1016.05
2019-01-21T10:47:02.380Z,1016.06
2019-01-21T10:48:02.386Z,1016.02
2019-01-21T10:49:02.355Z,1016.03
2019-01-21T10:50:02.348Z,1016.06
2019-01-21T10:51:02.340Z,1016.02
2019-01-21T10:52:02.326Z,1015.98
2019-01-21T10:53:02.334Z,1015.99
2019-01-21T10:54:02.301Z,1015.99
2019-01-21T10:55:02.292Z,1015.95
2019-01-21T10:56:02.320Z,1015.95
2019-01-21T10:57:02.276Z,1015.96
2019-01-21T10:58:02.280Z,1015.93
2019-01-21T10:59:02.245Z,1015.88
2019-01-21T11:00:02.235Z,1015.98
2019-01-21T11:01:02.224Z,1015.92
2019-01-21T11:02:02.213Z,1015.95
2019-01-21T11:03:02.679Z,1015.88
2019-01-21T11:04:02.193Z,1015.87
2019-01-21T11:05:02.181Z,1015.80
2019-01-21T11:06:02.169Z,1015.82
2019-01-21T11:07:02.160Z,1015.88
2019-01-21T11:08:02.148Z,1015.81
2019-01-21T11:09:02.181Z,1015.83
2019-01-21T11:10:02.127Z,1015.83
2019-01-21T11:11:02.114Z,1015.86
2019-01-21T11:12:02.106Z,1015.82
2019-01-21T11:13:02.091Z,1015.86
2019-01-21T11:14:02.102Z,1015.82
2019-01-21T11:15:02.070Z,1015.87
2019-01-21T11:16:02.060Z,1015.91
2019-01-21T11:17:02.049Z,1015.84
2019-01-21T11:18:02.036Z,1015.82
2019-01-21T11:19:02.046Z,1015.78
2019-01-21T11:20:04.239Z,1015.86
2019-01-21T11:21:02.007Z,1015.89
2019-01-21T11:22:01.995Z,1015.86
2019-01-21T11:23:01.982Z,1015.80
2019-01-21T11:24:01.992Z,1015.83
2019-01-21T11:25:01.963Z,1015.75
2019-01-21T11:26:01.959Z,1015.74
2019-01-21T11:27:01.941Z,1015.69
2019-01-21T11:28:01.927Z,1015.77
2019-01-21T11:29:01.937Z,1015.77
2019-01-21T11:30:01.911Z,1015.76
2019-01-21T11:31:01.895Z,1015.74
2019-01-21T11:32:01.886Z,1015.74
2019-01-21T11:33:01.872Z,1015.70
2019-01-21T11:34:01.901Z,1015.72
2019-01-21T11:35:01.852Z,1015.63
2019-01-21T11:36:01.838Z,1015.67
2019-01-21T11:37:01.828Z,1015.63
2019-01-21T11:38:01.818Z,1015.60
2019-01-21T11:39:01.826Z,1015.64
2019-01-21T11:40:01.801Z,1015.64
2019-01-21T11:41:01.788Z,1015.63
2019-01-21T11:42:01.774Z,1015.55
2019-01-21T11:43:01.762Z,1015.55
2019-01-21T11:44:01.770Z,1015.51
2019-01-21T11:45:01.743Z,1015.47
2019-01-21T11:46:01.737Z,1015.51
2019-01-21T11:47:01.720Z,1015.46
2019-01-21T11:48:01.709Z,1015.46
2019-01-21T11:49:01.823Z,1015.38
2019-01-21T11:50:01.689Z,1015.31
2019-01-21T11:51:01.673Z,1015.33
2019-01-21T11:52:01.662Z,1015.36
2019-01-21T11:53:01.656Z,1015.35
2019-01-21T11:54:01.642Z,1015.37
2019-01-21T11:55:01.650Z,1015.36
2019-01-21T11:56:01.618Z,1015.32
2019-01-21T11:57:01.608Z,1015.27
2019-01-21T11:58:01.598Z,1015.25
2019-01-21T11:59:01.587Z,1015.25
2019-01-21T12:00:01.597Z,1015.24
2019-01-21T12:01:01.569Z,1015.22
2019-01-21T12:02:01.556Z,1015.23
2019-01-21T12:03:01.544Z,1015.19
2019-01-21T12:04:01.534Z,1015.11
2019-01-21T12:05:01.544Z,1015.05